Nearby METAR Reports

Aktualna pogoda na lotniskach (dane METAR)

 

EPGD - Gdansk/Rebiechow, Poland
Distance from station: ENE 27mi, 44km
Updated: Sat, 17-Aug-2019 10:00pm PDT
Clear
Clear
 Wind from varies
Wind: varies 2 mph , 4 km/h
Temperature: 64°F , 18°C
Dew Point: 54°F , 12°C
Humidity: 68%
Barometer: 29.8 inHg , 1009 hPa
Summary: Clear
Visibility: greater than 7 miles , 10 km
2019/08/18 05:00 EPGD 180500Z VRB02KT CAVOK 18/12 Q1009
EPSC - Szczecin/Golenio, Poland
Distance from station: WSW 128mi, 205km
Updated: Sat, 17-Aug-2019 10:00pm PDT
Clear
Clear
 Wind from SSE
Wind: SSE 5 mph , 7 km/h
Temperature: 63°F , 17°C
Dew Point: 55°F , 13°C
Humidity: 77%
Barometer: 29.74 inHg , 1007 hPa
Summary: Clear
Visibility: greater than 7 miles , 10 km
2019/08/18 05:00 EPSC 180500Z 15004KT CAVOK 17/13 Q1007
 
EPPO - Poznan/Lawica, Poland
Distance from station: SSW 131mi, 210km
Updated: Sat, 17-Aug-2019 10:00pm PDT
Clear
Clear
 Wind from SSW
Wind: SSW 7 mph , 11 km/h
Temperature: 66°F , 19°C
Dew Point: 54°F , 12°C
Humidity: 64%
Barometer: 29.8 inHg , 1009 hPa
Summary: Clear
Visibility: greater than 7 miles , 10 km
2019/08/18 05:00 EPPO 180500Z 20006KT CAVOK 19/12 Q1009
EPLL - Lodz/Lublinek, Poland
Distance from station: SSE 184mi, 296km
Updated: Sat, 17-Aug-2019 10:00pm PDT
Clear
Clear
 Wind from E
Wind: E 3 mph , 6 km/h
Temperature: 61°F , 16°C
Dew Point: 54°F , 12°C
Humidity: 77%
Barometer: 29.88 inHg , 1012 hPa
Summary: Clear
Visibility: greater than 7 miles , 10 km
2019/08/18 05:00 EPLL 180500Z 10003KT CAVOK 16/12 Q1012
 
EPWA - Warsaw/Okecie, Poland
Distance from station: SE 191mi, 307km
Updated: Sat, 17-Aug-2019 10:00pm PDT
Clear
Clear
 Wind from varies
Wind: varies 2 mph , 4 km/h
Temperature: 63°F , 17°C
Dew Point: 55°F , 13°C
Humidity: 77%
Barometer: 29.88 inHg , 1012 hPa
Summary: Clear
Visibility: greater than 7 miles , 10 km
2019/08/18 05:00 EPWA 180500Z VRB02KT CAVOK 17/13 Q1012 NOSIG
EPWR - Wroclaw/Strachow, Poland
Distance from station: S 219mi, 352km
Updated: Sat, 17-Aug-2019 10:00pm PDT
Clear
Clear
 Wind from SE
Wind: SE 5 mph , 7 km/h
Temperature: 63°F , 17°C
Dew Point: 54°F , 12°C
Humidity: 73%
Barometer: 29.85 inHg , 1011 hPa
Summary: Clear
Visibility: greater than 7 miles , 10 km
2019/08/18 05:00 EPWR 180500Z 14004KT CAVOK 17/12 Q1011

Metar display script from Saratoga-Weather.org